Time;durP1;ratioP1;P1;durP2;ratioP2;P2;SDS_P1;SDS_P2;PMS_P1;PMS_P2;Temp;Humidity;BMP_temperature;BMP_pressure;BME280_temperature;BME280_humidity;BME280_pressure;Samples;Min_cycle;Max_cycle;Signal;HPM_P1;HPM_P2
2023/06/07 00:07:37;;;;;;;25.20;19.30;;;;;;;;;;7998526;29;20058;-95
2023/06/07 00:11:53;;;;;;;27.42;20.20;;;;;;;;;;7983843;29;20145;-96
2023/06/07 00:16:12;;;;;;;24.88;19.52;;;;;;;;;;8024095;29;20082;-96
2023/06/07 00:20:35;;;;;;;25.83;19.25;;;;;;;;;;8120436;29;20088;-95
2023/06/07 00:25:01;;;;;;;23.88;18.73;;;;;;;;;;8218751;28;20500;-95
2023/06/07 00:29:14;;;;;;;26.58;19.67;;;;;;;;;;8233867;28;20141;-96
2023/06/07 00:33:23;;;;;;;30.38;20.55;;;;;;;;;;8218386;28;20083;-95
2023/06/07 00:37:34;;;;;;;25.33;19.35;;;;;;;;;;8230609;28;20062;-95
2023/06/07 00:41:55;;;;;;;24.90;19.33;;;;;;;;;;8222277;28;20063;-95
2023/06/07 00:46:16;;;;;;;25.75;17.90;;;;;;;;;;8249648;28;20152;-96
2023/06/07 00:50:51;;;;;;;30.75;19.67;;;;;;;;;;8306409;28;20046;-96
2023/06/07 00:55:20;;;;;;;25.60;19.33;;;;;;;;;;8370465;28;20654;-96
2023/06/07 00:59:24;;;;;;;30.30;20.60;;;;;;;;;;8346984;28;20056;-94
2023/06/07 01:03:30;;;;;;;25.23;19.10;;;;;;;;;;8341504;28;20592;-94
2023/06/07 01:07:36;;;;;;;25.27;18.52;;;;;;;;;;8360046;28;20409;-95
2023/06/07 01:11:43;;;;;;;26.45;19.17;;;;;;;;;;8356619;28;20057;-95
2023/06/07 01:15:47;;;;;;;25.88;18.67;;;;;;;;;;8341942;28;20079;-94
2023/06/07 01:19:55;;;;;;;27.45;20.00;;;;;;;;;;8338178;28;20103;-95
2023/06/07 01:24:04;;;;;;;25.55;18.98;;;;;;;;;;8337355;28;20060;-94
2023/06/07 01:28:09;;;;;;;29.58;20.02;;;;;;;;;;8342089;28;20064;-94
2023/06/07 01:32:15;;;;;;;24.88;18.98;;;;;;;;;;8336003;28;20049;-94
2023/06/07 01:36:24;;;;;;;25.98;19.15;;;;;;;;;;8247801;28;20058;-95
2023/06/07 01:40:30;;;;;;;25.50;18.27;;;;;;;;;;8248245;28;20050;-94
2023/06/07 01:44:35;;;;;;;23.98;18.77;;;;;;;;;;8255984;28;20076;-95
2023/06/07 01:48:39;;;;;;;26.20;19.58;;;;;;;;;;8257259;28;20534;-95
2023/06/07 01:52:45;;;;;;;25.73;18.00;;;;;;;;;;8293591;28;20072;-96
2023/06/07 01:57:08;;;;;;;23.10;16.48;;;;;;;;;;8352086;28;20052;-95
2023/06/07 02:01:19;;;;;;;23.52;16.90;;;;;;;;;;8335397;28;20045;-95
2023/06/07 02:05:30;;;;;;;22.15;17.17;;;;;;;;;;8310808;28;20061;-96
2023/06/07 02:09:40;;;;;;;24.00;16.73;;;;;;;;;;8317036;28;20054;-95
2023/06/07 02:13:51;;;;;;;24.80;17.08;;;;;;;;;;8349476;28;20489;-96
2023/06/07 02:18:01;;;;;;;25.70;18.15;;;;;;;;;;8348909;28;20519;-95
2023/06/07 02:22:05;;;;;;;23.90;17.73;;;;;;;;;;8329302;28;20060;-96
2023/06/07 02:26:08;;;;;;;22.90;16.63;;;;;;;;;;8348722;28;20048;-96
2023/06/07 02:30:13;;;;;;;22.25;17.75;;;;;;;;;;8325401;28;20057;-95
2023/06/07 02:34:17;;;;;;;22.35;17.13;;;;;;;;;;8346774;28;20077;-96
2023/06/07 02:38:20;;;;;;;27.42;20.35;;;;;;;;;;8356878;28;20052;-94
2023/06/07 02:42:24;;;;;;;33.78;25.27;;;;;;;;;;8335177;28;20052;-95
2023/06/07 02:46:30;;;;;;;35.00;25.80;;;;;;;;;;8334642;28;20075;-95
2023/06/07 02:50:33;;;;;;;23.10;17.80;;;;;;;;;;8347026;28;20048;-95
2023/06/07 02:54:39;;;;;;;28.20;19.08;;;;;;;;;;8336089;28;20132;-95
2023/06/07 02:58:43;;;;;;;25.73;18.40;;;;;;;;;;8364056;28;20515;-96
2023/06/07 03:02:48;;;;;;;25.17;19.33;;;;;;;;;;8338626;28;20141;-94
2023/06/07 03:06:53;;;;;;;22.17;17.70;;;;;;;;;;8347970;28;20485;-94
2023/06/07 03:10:57;;;;;;;22.02;16.92;;;;;;;;;;8348840;28;20056;-95
2023/06/07 03:15:01;;;;;;;23.45;17.10;;;;;;;;;;8367471;28;20062;-95
2023/06/07 03:19:06;;;;;;;20.52;16.08;;;;;;;;;;8334156;28;20049;-95
2023/06/07 03:23:10;;;;;;;18.38;14.38;;;;;;;;;;8323282;28;20053;-95
2023/06/07 03:27:15;;;;;;;17.63;14.50;;;;;;;;;;8335816;28;20064;-95
2023/06/07 03:31:19;;;;;;;20.55;14.75;;;;;;;;;;8344066;28;20061;-96
2023/06/07 03:35:26;;;;;;;16.52;14.07;;;;;;;;;;8373431;28;20067;-95
2023/06/07 03:39:31;;;;;;;21.25;14.85;;;;;;;;;;8335713;28;20099;-96
2023/06/07 03:43:35;;;;;;;18.20;14.20;;;;;;;;;;8336730;28;20099;-96
2023/06/07 03:47:40;;;;;;;19.00;14.40;;;;;;;;;;8373698;28;20057;-95
2023/06/07 03:51:46;;;;;;;20.92;13.20;;;;;;;;;;8358847;28;20050;-96
2023/06/07 03:55:51;;;;;;;17.48;13.77;;;;;;;;;;8351887;28;20520;-95
2023/06/07 03:59:56;;;;;;;18.38;14.02;;;;;;;;;;8348782;28;20053;-95
2023/06/07 04:04:03;;;;;;;20.08;14.48;;;;;;;;;;8345072;28;20052;-95
2023/06/07 04:17:25;;;;;;;17.70;12.00;;;;;;;;;;8386304;28;20057;-96
2023/06/07 04:26:50;;;;;;;18.92;16.95;;;;;;;;;;8375462;28;20056;-96
2023/06/07 05:24:09;;;;;;;9.70;7.53;;;;;;;;;;1337455;23;20327;-93
2023/06/07 05:28:59;;;;;;;9.18;6.50;;;;;;;;;;8350860;28;20057;-95
2023/06/07 05:38:35;;;;;;;8.68;4.95;;;;;;;;;;8329988;28;20067;-94
2023/06/07 05:48:41;;;;;;;9.85;7.00;;;;;;;;;;8137482;29;20111;-95
2023/06/07 06:12:38;;;;;;;8.48;4.78;;;;;;;;;;7829464;30;20112;-95
2023/06/07 06:16:58;;;;;;;10.40;6.55;;;;;;;;;;7874161;29;20085;-93
2023/06/07 06:25:43;;;;;;;6.95;5.15;;;;;;;;;;7997302;29;20067;-94
2023/06/07 06:34:41;;;;;;;8.48;4.65;;;;;;;;;;8185636;29;20433;-96
2023/06/07 06:39:08;;;;;;;7.63;4.00;;;;;;;;;;8171959;29;20091;-96
2023/06/07 06:44:03;;;;;;;4.97;4.05;;;;;;;;;;8176199;29;20089;-96
2023/06/07 06:52:42;;;;;;;5.00;4.00;;;;;;;;;;8028122;29;20054;-96
2023/06/07 07:07:03;;;;;;;8.98;5.10;;;;;;;;;;8000558;29;20054;-95
2023/06/07 07:21:01;;;;;;;6.47;3.95;;;;;;;;;;8163768;29;20052;-94
2023/06/07 07:25:39;;;;;;;10.55;4.43;;;;;;;;;;8163006;29;20071;-94
2023/06/07 07:30:32;;;;;;;9.55;5.32;;;;;;;;;;8163937;29;20144;-95
2023/06/07 07:35:18;;;;;;;5.95;3.65;;;;;;;;;;8166308;29;20094;-94
2023/06/07 07:49:31;;;;;;;11.85;5.95;;;;;;;;;;8162256;29;20080;-94
2023/06/07 07:58:35;;;;;;;14.40;7.13;;;;;;;;;;8080836;29;20065;-96
2023/06/07 08:03:12;;;;;;;12.40;9.55;;;;;;;;;;8084445;29;20068;-95
2023/06/07 08:07:43;;;;;;;7.20;5.55;;;;;;;;;;8037016;29;20113;-95
2023/06/07 08:12:33;;;;;;;18.08;6.97;;;;;;;;;;8086437;29;20080;-94
2023/06/07 08:21:54;;;;;;;6.03;4.30;;;;;;;;;;8098384;29;20067;-94
2023/06/07 08:26:18;;;;;;;7.95;4.85;;;;;;;;;;8086322;29;20294;-94
2023/06/07 08:30:34;;;;;;;5.43;4.07;;;;;;;;;;7931063;30;20083;-93
2023/06/07 08:39:39;;;;;;;8.00;3.75;;;;;;;;;;7875255;30;20056;-96
2023/06/07 08:52:57;;;;;;;4.80;3.05;;;;;;;;;;8014825;29;20148;-96
2023/06/07 08:57:20;;;;;;;4.65;3.10;;;;;;;;;;8156591;29;20056;-95
2023/06/07 09:01:34;;;;;;;5.22;3.45;;;;;;;;;;8156243;29;20567;-95
2023/06/07 09:10:13;;;;;;;7.55;3.42;;;;;;;;;;8147921;29;20124;-93
2023/06/07 09:14:23;;;;;;;7.03;3.20;;;;;;;;;;8116954;29;20066;-93
2023/06/07 09:19:00;;;;;;;5.63;2.88;;;;;;;;;;8151850;29;20056;-96
2023/06/07 09:23:13;;;;;;;6.10;3.60;;;;;;;;;;8142704;29;20079;-93
2023/06/07 09:27:36;;;;;;;3.97;2.60;;;;;;;;;;8147706;29;20056;-93
2023/06/07 09:31:48;;;;;;;7.47;3.10;;;;;;;;;;8140757;29;20060;-92
2023/06/07 09:36:20;;;;;;;5.90;3.45;;;;;;;;;;8180900;29;20505;-93
2023/06/07 09:40:26;;;;;;;3.72;2.72;;;;;;;;;;8181807;29;20087;-94
2023/06/07 09:45:09;;;;;;;4.88;2.60;;;;;;;;;;8179952;29;20056;-96
2023/06/07 09:49:19;;;;;;;5.57;3.00;;;;;;;;;;8156414;29;20055;-94
2023/06/07 09:53:27;;;;;;;4.82;3.40;;;;;;;;;;8175983;29;20146;-94
2023/06/07 09:57:35;;;;;;;5.03;3.00;;;;;;;;;;8164692;29;20063;-95
2023/06/07 10:01:51;;;;;;;7.03;3.17;;;;;;;;;;8176021;29;20063;-93
2023/06/07 10:05:58;;;;;;;4.68;3.30;;;;;;;;;;8165474;29;20114;-94
2023/06/07 10:10:24;;;;;;;11.05;4.38;;;;;;;;;;8165835;29;20059;-95
2023/06/07 10:14:43;;;;;;;6.25;3.83;;;;;;;;;;8160106;29;20060;-94
2023/06/07 10:19:00;;;;;;;6.47;3.60;;;;;;;;;;8162335;29;20120;-94
2023/06/07 10:23:22;;;;;;;7.65;3.72;;;;;;;;;;8182449;29;20055;-94
2023/06/07 10:27:28;;;;;;;4.35;2.90;;;;;;;;;;8177526;29;20059;-93
2023/06/07 10:31:38;;;;;;;5.88;3.42;;;;;;;;;;8162959;29;20058;-95
2023/06/07 10:35:51;;;;;;;;;;;;;;;;;;8174195;29;20052;-93
2023/06/07 10:39:56;;;;;;;4.38;2.83;;;;;;;;;;8174228;29;19933;-94
2023/06/07 10:49:01;;;;;;;6.20;3.92;;;;;;;;;;8187628;23;20064;-95
2023/06/07 10:53:07;;;;;;;5.15;2.45;;;;;;;;;;8301186;28;20061;-95
2023/06/07 10:57:11;;;;;;;3.55;2.35;;;;;;;;;;8301320;28;20050;-91
2023/06/07 11:01:23;;;;;;;3.08;2.17;;;;;;;;;;8298164;28;20136;-89
2023/06/07 11:06:05;;;;;;;3.55;2.25;;;;;;;;;;8312826;28;21383;-88
2023/06/07 11:10:37;;;;;;;;;;;;;;;;;;8308070;28;20132;-89
2023/06/07 11:15:20;;;;;;;3.65;1.88;;;;;;;;;;8226117;28;19984;-90
2023/06/07 11:19:23;;;;;;;2.75;2.00;;;;;;;;;;8301745;28;20119;-91
2023/06/07 11:23:28;;;;;;;2.92;2.00;;;;;;;;;;8316479;28;20061;-90
2023/06/07 11:27:32;;;;;;;4.13;2.20;;;;;;;;;;8310674;28;20058;-88
2023/06/07 11:31:39;;;;;;;3.70;2.53;;;;;;;;;;8294909;28;20092;-88
2023/06/07 11:35:43;;;;;;;4.28;2.40;;;;;;;;;;8310563;28;20081;-92
2023/06/07 11:39:46;;;;;;;5.43;2.58;;;;;;;;;;8317102;28;20076;-90
2023/06/07 11:43:49;;;;;;;4.60;2.50;;;;;;;;;;8304785;28;20092;-92
2023/06/07 11:48:02;;;;;;;3.90;2.58;;;;;;;;;;8324969;28;20497;-92
2023/06/07 11:52:06;;;;;;;6.18;2.90;;;;;;;;;;8311640;28;20050;-88
2023/06/07 11:56:10;;;;;;;4.60;2.70;;;;;;;;;;8305464;28;20478;-91
2023/06/07 12:00:18;;;;;;;4.38;2.40;;;;;;;;;;8304671;28;20141;-89
2023/06/07 12:04:24;;;;;;;5.45;3.60;;;;;;;;;;8308563;28;20509;-91
2023/06/07 12:08:33;;;;;;;4.43;2.70;;;;;;;;;;8293784;28;20077;-88
2023/06/07 12:12:39;;;;;;;4.78;2.30;;;;;;;;;;8314589;28;20046;-90
2023/06/07 12:16:44;;;;;;;4.88;2.50;;;;;;;;;;8306527;28;20053;-92
2023/06/07 12:21:01;;;;;;;4.57;2.33;;;;;;;;;;8334937;28;20045;-92
2023/06/07 12:25:09;;;;;;;4.78;2.47;;;;;;;;;;8302676;28;20081;-88
2023/06/07 12:29:12;;;;;;;4.60;2.65;;;;;;;;;;8316956;28;20068;-90
2023/06/07 12:33:16;;;;;;;3.85;2.33;;;;;;;;;;8303065;28;20058;-92
2023/06/07 12:37:20;;;;;;;3.47;2.38;;;;;;;;;;8300845;28;20060;-91
2023/06/07 12:41:27;;;;;;;6.05;2.45;;;;;;;;;;8312103;28;20561;-90
2023/06/07 12:45:31;;;;;;;5.57;2.70;;;;;;;;;;8315913;28;20050;-89
2023/06/07 12:49:36;;;;;;;3.85;2.40;;;;;;;;;;8308752;28;20140;-86
2023/06/07 12:53:40;;;;;;;4.05;2.40;;;;;;;;;;8301574;28;20140;-92
2023/06/07 12:57:43;;;;;;;4.68;1.92;;;;;;;;;;8298986;28;20054;-91
2023/06/07 13:01:46;;;;;;;3.97;2.38;;;;;;;;;;8302629;28;20049;-91
2023/06/07 13:05:48;;;;;;;3.70;2.55;;;;;;;;;;8301555;28;20080;-93
2023/06/07 13:10:22;;;;;;;5.47;3.72;;;;;;;;;;8325962;28;20052;-94
2023/06/07 13:14:51;;;;;;;5.75;2.45;;;;;;;;;;8350977;28;20324;-95
2023/06/07 13:18:55;;;;;;;5.55;2.80;;;;;;;;;;8322447;28;20116;-94
2023/06/07 13:23:06;;;;;;;4.85;3.17;;;;;;;;;;8322727;28;20061;-96
2023/06/07 13:27:26;;;;;;;4.30;2.60;;;;;;;;;;8338187;28;20061;-95
2023/06/07 13:31:29;;;;;;;2.97;2.40;;;;;;;;;;8341953;28;20058;-94
2023/06/07 13:35:35;;;;;;;4.72;2.83;;;;;;;;;;8323857;28;20132;-94
2023/06/07 13:39:46;;;;;;;4.25;2.63;;;;;;;;;;8311861;28;20061;-95
2023/06/07 13:43:57;;;;;;;4.10;2.53;;;;;;;;;;8316658;28;20054;-95
2023/06/07 13:48:01;;;;;;;4.13;2.60;;;;;;;;;;8328827;28;20141;-94
2023/06/07 13:52:12;;;;;;;3.83;2.80;;;;;;;;;;8296481;28;20049;-95
2023/06/07 13:56:43;;;;;;;6.28;2.80;;;;;;;;;;8310284;28;20058;-94
2023/06/07 14:00:58;;;;;;;5.93;2.90;;;;;;;;;;8291479;28;20122;-96
2023/06/07 14:09:42;;;;;;;4.63;2.70;;;;;;;;;;8334159;28;20608;-95
2023/06/07 14:13:46;;;;;;;3.97;2.50;;;;;;;;;;8317632;28;20057;-91
2023/06/07 14:17:51;;;;;;;3.75;2.83;;;;;;;;;;8309565;28;20452;-92
2023/06/07 14:21:54;;;;;;;4.00;2.78;;;;;;;;;;8308844;28;20049;-89
2023/06/07 14:25:59;;;;;;;8.10;3.05;;;;;;;;;;8314422;28;20060;-90
2023/06/07 14:30:07;;;;;;;5.40;2.80;;;;;;;;;;8318829;28;20057;-91
2023/06/07 14:34:12;;;;;;;5.97;3.13;;;;;;;;;;8315936;28;20057;-94
2023/06/07 14:38:15;;;;;;;6.13;2.90;;;;;;;;;;8317391;28;20064;-92
2023/06/07 14:42:24;;;;;;;4.80;3.20;;;;;;;;;;8313196;28;20065;-88
2023/06/07 14:46:36;;;;;;;4.35;3.30;;;;;;;;;;8291606;28;20054;-90
2023/06/07 14:50:40;;;;;;;6.53;3.10;;;;;;;;;;8297140;28;20058;-88
2023/06/07 14:54:44;;;;;;;8.35;3.10;;;;;;;;;;8299016;28;20092;-88
2023/06/07 14:58:47;;;;;;;4.10;2.95;;;;;;;;;;8310637;28;20049;-86
2023/06/07 15:02:51;;;;;;;5.63;3.33;;;;;;;;;;8322927;28;20049;-87
2023/06/07 15:06:56;;;;;;;6.55;3.90;;;;;;;;;;8303590;28;20077;-87
2023/06/07 15:10:59;;;;;;;5.97;3.17;;;;;;;;;;8326628;28;20529;-88
2023/06/07 15:15:02;;;;;;;6.28;3.40;;;;;;;;;;8338081;28;20057;-87
2023/06/07 15:19:06;;;;;;;4.95;3.40;;;;;;;;;;8304989;28;20053;-89
2023/06/07 15:23:12;;;;;;;5.43;3.20;;;;;;;;;;8312744;28;20403;-90
2023/06/07 15:27:15;;;;;;;6.15;3.50;;;;;;;;;;8325035;28;20057;-89
2023/06/07 15:31:19;;;;;;;6.38;3.00;;;;;;;;;;8327272;28;20398;-89
2023/06/07 15:35:23;;;;;;;6.60;2.70;;;;;;;;;;8314579;28;20053;-89
2023/06/07 15:39:28;;;;;;;4.90;3.30;;;;;;;;;;8315259;28;20050;-88
2023/06/07 15:43:31;;;;;;;6.35;3.35;;;;;;;;;;8326175;28;20054;-86
2023/06/07 15:47:35;;;;;;;5.03;2.92;;;;;;;;;;8332046;28;20057;-90
2023/06/07 15:51:39;;;;;;;5.18;3.10;;;;;;;;;;8311486;28;20058;-87
2023/06/07 15:55:49;;;;;;;5.10;3.13;;;;;;;;;;8303956;28;20050;-88
2023/06/07 15:59:52;;;;;;;4.70;3.20;;;;;;;;;;8322829;28;20054;-87
2023/06/07 16:03:55;;;;;;;5.10;3.40;;;;;;;;;;8318421;28;20753;-89
2023/06/07 16:07:58;;;;;;;4.28;3.20;;;;;;;;;;8323033;28;20061;-88
2023/06/07 16:12:03;;;;;;;5.50;3.75;;;;;;;;;;8325488;28;20045;-90
2023/06/07 16:16:06;;;;;;;5.95;3.42;;;;;;;;;;8314008;28;20519;-89
2023/06/07 16:20:11;;;;;;;7.63;4.03;;;;;;;;;;8319263;28;20061;-91
2023/06/07 16:24:15;;;;;;;7.95;3.22;;;;;;;;;;8318918;28;20054;-89
2023/06/07 16:28:21;;;;;;;5.10;3.40;;;;;;;;;;8335971;28;20059;-89
2023/06/07 16:32:24;;;;;;;6.85;3.70;;;;;;;;;;8325804;28;20064;-87
2023/06/07 16:36:27;;;;;;;7.70;3.50;;;;;;;;;;8316428;28;20050;-90
2023/06/07 16:40:30;;;;;;;7.72;3.90;;;;;;;;;;8320796;28;20114;-92
2023/06/07 16:44:37;;;;;;;5.63;3.80;;;;;;;;;;8320667;28;20056;-89
2023/06/07 16:48:40;;;;;;;5.80;3.35;;;;;;;;;;8318997;28;20054;-88
2023/06/07 16:52:43;;;;;;;8.55;3.60;;;;;;;;;;8322760;28;20490;-87
2023/06/07 16:56:46;;;;;;;8.52;4.00;;;;;;;;;;8312346;28;20054;-87
2023/06/07 17:00:51;;;;;;;5.95;4.00;;;;;;;;;;8296060;28;20060;-90
2023/06/07 17:04:54;;;;;;;5.07;3.40;;;;;;;;;;8302401;28;20470;-86
2023/06/07 17:08:57;;;;;;;6.93;3.30;;;;;;;;;;8301752;28;20061;-86
2023/06/07 17:13:00;;;;;;;13.77;3.50;;;;;;;;;;8301498;28;20099;-87
2023/06/07 17:17:05;;;;;;;6.00;3.25;;;;;;;;;;8298217;28;20116;-87
2023/06/07 17:21:08;;;;;;;6.88;3.33;;;;;;;;;;8297991;28;20061;-87
2023/06/07 17:25:11;;;;;;;10.52;3.58;;;;;;;;;;8306693;28;20129;-87
2023/06/07 17:29:14;;;;;;;7.63;3.45;;;;;;;;;;8299806;28;20058;-86
2023/06/07 17:33:18;;;;;;;5.93;3.13;;;;;;;;;;8297697;28;20133;-87
2023/06/07 17:37:21;;;;;;;5.38;3.15;;;;;;;;;;8298039;28;20064;-87
2023/06/07 17:41:25;;;;;;;7.22;3.85;;;;;;;;;;8313487;28;20057;-86
2023/06/07 17:45:29;;;;;;;5.47;3.28;;;;;;;;;;8307824;28;20054;-86
2023/06/07 17:49:33;;;;;;;5.35;2.85;;;;;;;;;;8300250;28;20057;-86
2023/06/07 17:53:37;;;;;;;7.95;3.53;;;;;;;;;;8296789;28;20062;-86
2023/06/07 17:57:41;;;;;;;7.38;3.50;;;;;;;;;;8301697;28;20141;-87
2023/06/07 18:01:45;;;;;;;6.63;3.17;;;;;;;;;;8312370;28;20061;-85
2023/06/07 18:05:50;;;;;;;5.35;3.15;;;;;;;;;;8302327;28;20401;-87
2023/06/07 18:09:57;;;;;;;6.70;3.72;;;;;;;;;;8321397;28;20077;-88
2023/06/07 18:14:00;;;;;;;6.85;3.40;;;;;;;;;;8306545;28;20062;-86
2023/06/07 18:18:03;;;;;;;7.95;4.80;;;;;;;;;;8313367;28;20539;-85
2023/06/07 18:22:07;;;;;;;7.22;3.72;;;;;;;;;;8308994;28;20132;-90
2023/06/07 18:26:11;;;;;;;7.03;3.35;;;;;;;;;;8304922;28;20800;-86
2023/06/07 18:30:14;;;;;;;6.82;3.45;;;;;;;;;;8313788;28;20046;-85
2023/06/07 18:34:19;;;;;;;6.68;3.58;;;;;;;;;;8304790;28;20066;-86
2023/06/07 18:38:24;;;;;;;40.53;32.22;;;;;;;;;;8312254;28;20066;-85
2023/06/07 18:42:27;;;;;;;162.05;74.43;;;;;;;;;;8316017;28;20088;-85
2023/06/07 18:46:30;;;;;;;62.47;22.58;;;;;;;;;;8320573;28;20065;-86
2023/06/07 18:50:33;;;;;;;53.20;19.38;;;;;;;;;;8307619;28;20057;-86
2023/06/07 18:54:38;;;;;;;14.77;10.00;;;;;;;;;;8314199;28;20054;-85
2023/06/07 18:58:41;;;;;;;11.73;9.90;;;;;;;;;;8315317;28;20437;-86
2023/06/07 19:02:44;;;;;;;17.30;8.35;;;;;;;;;;8308642;28;20080;-88
2023/06/07 19:06:48;;;;;;;6.25;3.75;;;;;;;;;;8320348;28;20053;-96
2023/06/07 19:10:54;;;;;;;10.00;5.05;;;;;;;;;;8320465;28;20107;-88
2023/06/07 19:14:57;;;;;;;8.48;5.10;;;;;;;;;;8308546;28;20060;-90
2023/06/07 19:19:00;;;;;;;34.10;13.00;;;;;;;;;;8312305;28;20053;-88
2023/06/07 19:23:03;;;;;;;22.00;10.77;;;;;;;;;;8320925;28;20548;-90
2023/06/07 19:27:08;;;;;;;12.90;6.38;;;;;;;;;;8315205;28;20589;-95
2023/06/07 19:31:13;;;;;;;13.60;7.07;;;;;;;;;;8324060;28;20049;-88
2023/06/07 19:35:19;;;;;;;7.00;4.10;;;;;;;;;;8317695;28;20041;-89
2023/06/07 19:39:25;;;;;;;40.53;13.07;;;;;;;;;;8314055;28;20050;-91
2023/06/07 19:43:33;;;;;;;23.05;10.30;;;;;;;;;;8312978;28;20060;-89
2023/06/07 19:47:38;;;;;;;15.18;8.57;;;;;;;;;;8317692;28;20045;-87
2023/06/07 19:51:41;;;;;;;11.85;5.72;;;;;;;;;;8323701;28;20057;-94
2023/06/07 19:55:44;;;;;;;20.65;11.75;;;;;;;;;;8312970;28;20057;-89
2023/06/07 19:59:49;;;;;;;9.90;5.40;;;;;;;;;;8334235;28;20460;-89
2023/06/07 20:03:52;;;;;;;24.75;10.15;;;;;;;;;;8291824;28;20064;-88
2023/06/07 20:08:00;;;;;;;31.23;10.77;;;;;;;;;;8315134;28;20104;-96
2023/06/07 20:12:10;;;;;;;8.02;4.10;;;;;;;;;;8335862;28;20056;-96
2023/06/07 20:16:19;;;;;;;10.15;5.30;;;;;;;;;;8301696;28;20050;-93
2023/06/07 20:20:29;;;;;;;6.30;4.30;;;;;;;;;;8318818;28;20088;-94
2023/06/07 20:24:35;;;;;;;17.67;6.47;;;;;;;;;;8318123;28;20058;-94
2023/06/07 20:28:39;;;;;;;9.30;4.53;;;;;;;;;;8318950;28;20057;-95
2023/06/07 20:32:43;;;;;;;10.10;5.05;;;;;;;;;;8300993;28;20081;-87
2023/06/07 20:36:48;;;;;;;8.07;5.75;;;;;;;;;;8313025;28;20053;-95
2023/06/07 20:40:54;;;;;;;14.38;5.78;;;;;;;;;;8314884;28;20050;-86
2023/06/07 20:44:57;;;;;;;7.72;4.60;;;;;;;;;;8300986;28;20123;-95
2023/06/07 20:49:04;;;;;;;10.32;5.50;;;;;;;;;;8326002;28;20103;-92
2023/06/07 20:53:07;;;;;;;9.73;4.70;;;;;;;;;;8311346;28;20069;-87
2023/06/07 20:57:14;;;;;;;8.38;5.07;;;;;;;;;;8299553;28;20081;-94
2023/06/07 21:01:17;;;;;;;6.75;4.93;;;;;;;;;;8299621;28;20104;-87
2023/06/07 21:05:25;;;;;;;7.32;5.57;;;;;;;;;;8312496;28;20458;-87
2023/06/07 21:09:28;;;;;;;11.15;5.10;;;;;;;;;;8308606;28;20062;-95
2023/06/07 21:13:31;;;;;;;6.90;5.60;;;;;;;;;;8312810;28;20078;-95
2023/06/07 21:17:34;;;;;;;11.23;5.53;;;;;;;;;;8301872;28;20493;-88
2023/06/07 21:21:38;;;;;;;9.52;6.20;;;;;;;;;;8292856;28;20068;-88
2023/06/07 21:25:44;;;;;;;17.33;8.30;;;;;;;;;;8303173;28;20085;-88
2023/06/07 21:29:48;;;;;;;15.77;10.60;;;;;;;;;;8321321;28;20068;-87
2023/06/07 21:34:00;;;;;;;11.07;7.22;;;;;;;;;;8311629;28;20079;-88
2023/06/07 21:38:04;;;;;;;11.23;7.30;;;;;;;;;;8303456;28;20058;-87
2023/06/07 21:42:08;;;;;;;10.00;6.50;;;;;;;;;;8300168;28;20057;-90
2023/06/07 21:46:11;;;;;;;25.05;14.15;;;;;;;;;;8303721;28;20049;-86
2023/06/07 21:50:15;;;;;;;16.45;11.80;;;;;;;;;;8309558;28;20089;-94
2023/06/07 21:54:19;;;;;;;12.63;8.85;;;;;;;;;;8306579;28;20054;-87
2023/06/07 21:58:22;;;;;;;12.13;8.70;;;;;;;;;;8319401;28;20066;-86
2023/06/07 22:02:28;;;;;;;14.93;9.77;;;;;;;;;;8307885;28;20080;-87
2023/06/07 22:06:31;;;;;;;12.27;7.90;;;;;;;;;;8298170;28;20497;-88
2023/06/07 22:10:39;;;;;;;16.70;9.95;;;;;;;;;;8297726;28;20061;-87
2023/06/07 22:14:43;;;;;;;13.40;9.52;;;;;;;;;;8300518;28;20049;-87
2023/06/07 22:18:47;;;;;;;13.30;9.35;;;;;;;;;;8330629;28;20087;-87
2023/06/07 22:22:51;;;;;;;17.77;10.25;;;;;;;;;;8327815;28;20061;-87
2023/06/07 22:26:56;;;;;;;21.02;9.93;;;;;;;;;;8311889;28;20504;-92
2023/06/07 22:31:02;;;;;;;16.08;10.30;;;;;;;;;;8305102;28;20081;-91
2023/06/07 22:35:08;;;;;;;16.45;10.98;;;;;;;;;;8311583;28;20429;-87
2023/06/07 22:39:15;;;;;;;19.20;13.98;;;;;;;;;;8323756;28;20104;-86
2023/06/07 22:43:20;;;;;;;18.83;12.43;;;;;;;;;;8311811;28;20061;-87
2023/06/07 22:47:28;;;;;;;19.15;13.50;;;;;;;;;;8304793;28;20166;-87
2023/06/07 22:51:33;;;;;;;34.35;26.65;;;;;;;;;;8302778;28;20050;-88
2023/06/07 22:55:36;;;;;;;34.60;23.52;;;;;;;;;;8312863;28;20046;-87
2023/06/07 22:59:42;;;;;;;29.00;18.55;;;;;;;;;;8301410;28;20563;-87
2023/06/07 23:03:45;;;;;;;30.80;18.40;;;;;;;;;;8307548;28;20054;-87
2023/06/07 23:07:49;;;;;;;28.52;17.65;;;;;;;;;;8314645;28;20059;-91
2023/06/07 23:11:52;;;;;;;26.20;15.23;;;;;;;;;;8301334;28;20061;-87
2023/06/07 23:15:57;;;;;;;20.33;14.30;;;;;;;;;;8314030;28;20132;-88
2023/06/07 23:20:00;;;;;;;27.63;17.10;;;;;;;;;;8309758;28;20065;-87
2023/06/07 23:24:04;;;;;;;54.10;32.15;;;;;;;;;;8321930;28;20073;-87
2023/06/07 23:28:07;;;;;;;56.28;31.25;;;;;;;;;;8283144;28;20533;-86
2023/06/07 23:32:11;;;;;;;40.75;24.33;;;;;;;;;;8311245;28;20129;-86
2023/06/07 23:36:15;;;;;;;33.47;19.02;;;;;;;;;;8318716;28;20079;-86
2023/06/07 23:40:18;;;;;;;26.17;16.38;;;;;;;;;;8313163;28;20573;-87
2023/06/07 23:44:25;;;;;;;23.80;16.70;;;;;;;;;;8319067;28;20057;-95
2023/06/07 23:48:30;;;;;;;22.70;15.40;;;;;;;;;;8312929;28;20098;-86
2023/06/07 23:52:33;;;;;;;18.38;14.20;;;;;;;;;;8320269;28;20132;-87
2023/06/07 23:56:37;;;;;;;20.92;12.60;;;;;;;;;;8316332;28;20055;-86
